createdAt,value
2019-04-27T00:02:39.998Z,95.60
2019-04-27T00:05:32.411Z,95.60
2019-04-27T00:08:24.030Z,95.50
2019-04-27T00:11:05.172Z,95.70
2019-04-27T00:13:30.140Z,95.70
2019-04-27T00:16:17.317Z,95.80
2019-04-27T00:19:10.776Z,95.90
2019-04-27T00:24:36.135Z,96.10
2019-04-27T00:27:03.825Z,96.20
2019-04-27T00:29:33.071Z,96.30
2019-04-27T00:32:00.983Z,96.30
2019-04-27T00:34:28.557Z,96.40
2019-04-27T00:37:17.053Z,96.60
2019-04-27T00:39:53.275Z,96.60
2019-04-27T00:42:21.295Z,96.60
2019-04-27T00:44:48.889Z,96.60
2019-04-27T00:47:16.436Z,96.70
2019-04-27T00:49:44.374Z,96.60
2019-04-27T00:52:13.780Z,96.70
2019-04-27T00:54:41.444Z,96.80
2019-04-27T00:57:30.886Z,96.70
2019-04-27T01:00:18.016Z,96.70
2019-04-27T01:03:08.995Z,96.70
2019-04-27T01:05:36.536Z,96.80
2019-04-27T01:08:04.276Z,97.10
2019-04-27T01:10:33.359Z,96.80
2019-04-27T01:13:01.061Z,96.80
2019-04-27T01:15:29.610Z,97.00
2019-04-27T01:18:09.296Z,96.90
2019-04-27T01:20:26.374Z,97.00
2019-04-27T01:22:53.748Z,97.10
2019-04-27T01:25:23.258Z,97.10
2019-04-27T01:28:10.727Z,97.20
2019-04-27T01:30:52.987Z,97.30
2019-04-27T01:33:20.584Z,97.30
2019-04-27T01:35:49.156Z,97.40
2019-04-27T01:38:16.790Z,97.50
2019-04-27T01:40:44.242Z,97.60
2019-04-27T01:43:11.734Z,97.60
2019-04-27T01:45:39.289Z,97.60
2019-04-27T01:48:06.712Z,97.70
2019-04-27T01:50:34.517Z,97.80
2019-04-27T01:53:03.033Z,97.90
2019-04-27T01:55:30.496Z,98.00
2019-04-27T01:57:59.593Z,98.00
2019-04-27T02:00:53.880Z,98.10
2019-04-27T02:03:28.636Z,98.10
2019-04-27T02:05:57.149Z,98.10
2019-04-27T02:08:24.808Z,98.20
2019-04-27T02:10:53.553Z,98.20
2019-04-27T02:13:21.292Z,98.20
2019-04-27T02:15:48.953Z,98.20
2019-04-27T02:18:16.578Z,98.30
2019-04-27T02:20:44.664Z,98.10
2019-04-27T02:23:12.049Z,98.30
2019-04-27T02:25:40.391Z,98.10
2019-04-27T02:28:19.465Z,98.20
2019-04-27T02:31:16.468Z,98.30
2019-04-27T02:33:47.091Z,98.40
2019-04-27T02:36:15.390Z,98.20
2019-04-27T02:38:43.891Z,98.10
2019-04-27T02:41:11.394Z,98.00
2019-04-27T02:43:49.565Z,97.90
2019-04-27T02:46:16.839Z,97.70
2019-04-27T02:48:55.305Z,97.50
2019-04-27T02:51:17.344Z,97.30
2019-04-27T02:53:55.317Z,97.10
2019-04-27T02:56:23.080Z,97.00
2019-04-27T02:58:50.648Z,96.90
2019-04-27T03:01:20.092Z,96.70
2019-04-27T03:03:50.314Z,96.90
2019-04-27T03:06:19.994Z,96.50
2019-04-27T03:08:52.746Z,96.30
2019-04-27T03:11:17.112Z,96.00
2019-04-27T03:13:59.845Z,95.80
2019-04-27T03:16:50.638Z,95.80
2019-04-27T03:19:32.898Z,95.60
2019-04-27T03:22:20.159Z,95.50
2019-04-27T03:25:19.918Z,95.50
2019-04-27T03:27:50.253Z,95.30
2019-04-27T03:30:22.528Z,95.40
2019-04-27T03:32:55.076Z,95.30
2019-04-27T03:35:17.116Z,95.40
2019-04-27T03:37:45.338Z,95.20
2019-04-27T03:40:13.071Z,95.20
2019-04-27T03:42:44.489Z,95.10
2019-04-27T03:45:12.185Z,95.10
2019-04-27T03:47:40.616Z,94.80
2019-04-27T03:50:10.742Z,94.60
2019-04-27T03:52:47.115Z,94.60
2019-04-27T03:55:19.829Z,94.50
2019-04-27T03:58:11.776Z,94.50
2019-04-27T04:00:36.410Z,94.30
2019-04-27T04:03:04.015Z,94.20
2019-04-27T04:05:31.591Z,94.20
2019-04-27T04:08:00.422Z,94.20
2019-04-27T04:10:29.992Z,94.30
2019-04-27T04:13:10.776Z,94.10
2019-04-27T04:16:00.443Z,94.00
2019-04-27T04:18:31.784Z,94.10
2019-04-27T04:21:00.403Z,94.20
2019-04-27T04:23:30.004Z,94.40
2019-04-27T04:25:59.737Z,94.90
2019-04-27T04:28:29.378Z,95.20
2019-04-27T04:31:00.278Z,95.70
2019-04-27T04:33:26.866Z,96.00
2019-04-27T04:35:54.196Z,96.00
2019-04-27T04:38:21.672Z,96.20
2019-04-27T04:40:55.969Z,96.60
2019-04-27T04:43:32.029Z,96.50
2019-04-27T04:46:19.105Z,96.50
2019-04-27T04:48:47.206Z,96.60
2019-04-27T04:51:14.599Z,96.70
2019-04-27T04:53:42.091Z,96.70
2019-04-27T04:56:10.656Z,96.70
2019-04-27T04:58:39.735Z,96.90
2019-04-27T05:01:09.902Z,97.00
2019-04-27T05:03:38.888Z,97.10
2019-04-27T05:06:06.459Z,97.10
2019-04-27T05:08:33.972Z,97.20
2019-04-27T05:11:01.346Z,97.40
2019-04-27T05:13:29.311Z,97.50
2019-04-27T05:15:58.756Z,97.80
2019-04-27T05:18:26.354Z,98.00
2019-04-27T05:20:59.496Z,98.10
2019-04-27T05:23:28.662Z,98.30
2019-04-27T05:25:56.195Z,98.30
2019-04-27T05:28:23.882Z,98.20
2019-04-27T05:30:51.444Z,98.10
2019-04-27T05:33:19.020Z,97.90
2019-04-27T05:35:49.238Z,97.80
2019-04-27T05:38:19.354Z,97.90
2019-04-27T05:40:47.013Z,98.10
2019-04-27T05:43:16.719Z,97.80
2019-04-27T05:46:51.153Z,97.90
2019-04-27T05:49:24.226Z,97.60
2019-04-27T05:51:51.893Z,97.50
2019-04-27T05:54:19.352Z,97.30
2019-04-27T05:56:46.748Z,97.10
2019-04-27T05:59:14.837Z,96.90
2019-04-27T06:01:42.997Z,96.80
2019-04-27T06:04:10.554Z,96.40
2019-04-27T06:06:39.691Z,96.60
2019-04-27T06:09:09.356Z,96.70
2019-04-27T06:11:36.955Z,96.90
2019-04-27T06:14:04.603Z,96.60
2019-04-27T06:16:33.831Z,96.80
2019-04-27T06:19:02.252Z,96.90
2019-04-27T06:21:30.799Z,96.70
2019-04-27T06:23:58.894Z,96.70
2019-04-27T06:26:26.789Z,96.70
2019-04-27T06:28:54.596Z,96.90
2019-04-27T06:31:22.118Z,96.80
2019-04-27T06:33:50.578Z,96.90
2019-04-27T06:36:19.874Z,96.60
2019-04-27T06:38:48.568Z,96.60
2019-04-27T06:41:16.165Z,96.60
2019-04-27T06:43:43.638Z,96.80
2019-04-27T06:46:12.584Z,96.70
2019-04-27T06:48:40.420Z,96.70
2019-04-27T06:51:09.693Z,96.70
2019-04-27T06:53:37.235Z,97.20
2019-04-27T06:56:05.000Z,97.00
2019-04-27T06:58:33.808Z,96.90
2019-04-27T07:01:01.420Z,97.10
2019-04-27T07:03:30.976Z,96.80
2019-04-27T07:05:59.013Z,96.80
2019-04-27T07:08:30.534Z,96.90
2019-04-27T07:10:58.881Z,96.90
2019-04-27T07:13:35.571Z,96.80
2019-04-27T07:15:59.708Z,96.50
2019-04-27T07:18:30.056Z,96.20
2019-04-27T07:20:59.605Z,96.10
2019-04-27T07:23:31.383Z,96.10
2019-04-27T07:25:59.910Z,96.00
2019-04-27T07:28:28.660Z,95.80
2019-04-27T07:30:58.672Z,95.40
2019-04-27T07:33:27.141Z,95.10
2019-04-27T07:35:54.564Z,95.00
2019-04-27T07:38:25.619Z,94.70
2019-04-27T07:40:53.517Z,94.50
2019-04-27T07:43:39.285Z,94.40
2019-04-27T07:46:06.819Z,94.10
2019-04-27T07:48:34.335Z,93.70
2019-04-27T07:51:01.695Z,93.60
2019-04-27T07:53:29.234Z,93.60
2019-04-27T07:55:56.666Z,93.60
2019-04-27T07:58:24.417Z,93.30
2019-04-27T08:00:51.847Z,92.80
2019-04-27T08:03:19.607Z,92.70
2019-04-27T08:05:48.978Z,92.40
2019-04-27T08:08:18.872Z,92.00
2019-04-27T08:10:50.055Z,91.70
2019-04-27T08:13:20.090Z,91.30
2019-04-27T08:15:49.623Z,91.00
2019-04-27T08:18:18.810Z,90.20
2019-04-27T08:20:49.023Z,88.30
2019-04-27T08:23:16.453Z,84.50
2019-04-27T08:25:44.102Z,82.40
2019-04-27T08:28:38.553Z,80.90
2019-04-27T08:31:11.492Z,80.70
2019-04-27T08:33:39.097Z,79.60
2019-04-27T08:36:06.676Z,80.00
2019-04-27T08:38:34.164Z,80.50
2019-04-27T08:41:01.743Z,81.50
2019-04-27T08:43:30.405Z,82.70
2019-04-27T08:45:58.735Z,83.60
2019-04-27T08:48:34.662Z,84.20
2019-04-27T08:50:56.437Z,83.80
2019-04-27T08:53:25.115Z,84.00
2019-04-27T08:55:52.900Z,84.10
2019-04-27T08:58:23.075Z,83.40
2019-04-27T09:00:50.631Z,82.10
2019-04-27T09:03:19.373Z,82.40
2019-04-27T09:05:46.946Z,82.70
2019-04-27T09:08:29.654Z,83.30
2019-04-27T09:11:29.038Z,83.90
2019-04-27T09:14:05.700Z,84.90
2019-04-27T09:16:59.556Z,85.00
2019-04-27T09:19:36.014Z,86.00
2019-04-27T09:22:13.547Z,86.70
2019-04-27T09:24:34.194Z,87.60
2019-04-27T09:27:01.799Z,87.90
2019-04-27T09:29:29.818Z,88.40
2019-04-27T09:31:59.593Z,87.80
2019-04-27T09:34:28.131Z,88.50
2019-04-27T09:36:56.645Z,88.70
2019-04-27T09:39:26.500Z,88.80
2019-04-27T09:41:54.302Z,89.00
2019-04-27T09:44:23.563Z,88.60
2019-04-27T09:46:51.103Z,89.10
2019-04-27T09:49:18.572Z,89.90
2019-04-27T09:51:48.205Z,90.00
2019-04-27T09:54:16.093Z,90.20
2019-04-27T09:56:43.655Z,90.50
2019-04-27T09:59:11.507Z,90.80
2019-04-27T10:01:39.010Z,90.70
2019-04-27T10:04:07.183Z,91.00
2019-04-27T10:06:37.775Z,91.00
2019-04-27T10:09:06.939Z,91.10
2019-04-27T10:11:37.075Z,90.90
2019-04-27T10:14:05.916Z,90.90
2019-04-27T10:16:33.842Z,90.80
2019-04-27T10:19:01.569Z,90.70
2019-04-27T10:21:29.423Z,90.20
2019-04-27T10:23:57.025Z,90.00
2019-04-27T10:26:25.883Z,89.50
2019-04-27T10:28:54.001Z,89.20
2019-04-27T10:31:21.613Z,87.90
2019-04-27T10:33:50.534Z,87.80
2019-04-27T10:36:38.440Z,87.80
2019-04-27T10:39:13.336Z,87.40
2019-04-27T10:41:42.330Z,87.60
2019-04-27T10:44:10.340Z,87.50
2019-04-27T10:46:39.990Z,87.60
2019-04-27T10:49:07.797Z,86.30
2019-04-27T10:51:36.405Z,86.00
2019-04-27T10:54:05.922Z,86.60
2019-04-27T10:56:35.959Z,86.10
2019-04-27T10:59:07.209Z,84.40
2019-04-27T11:01:35.922Z,83.20
2019-04-27T11:04:19.845Z,82.50
2019-04-27T11:06:50.716Z,82.80
2019-04-27T11:09:18.790Z,83.10
2019-04-27T11:11:46.494Z,83.40
2019-04-27T11:14:15.930Z,83.50
2019-04-27T11:16:45.778Z,83.90
2019-04-27T11:19:13.637Z,84.00
2019-04-27T11:21:41.972Z,83.50
2019-04-27T11:24:09.532Z,83.00
2019-04-27T11:26:37.086Z,83.00
2019-04-27T11:29:05.331Z,82.90
2019-04-27T11:31:32.916Z,82.20
2019-04-27T11:34:00.824Z,81.50
2019-04-27T11:36:50.837Z,81.00
2019-04-27T11:39:21.139Z,80.30
2019-04-27T11:41:47.938Z,80.40
2019-04-27T11:44:17.026Z,80.00
2019-04-27T11:46:45.534Z,78.50
2019-04-27T11:49:15.596Z,78.60
2019-04-27T11:51:43.466Z,78.50
2019-04-27T11:54:10.819Z,78.50
2019-04-27T11:56:38.383Z,78.80
2019-04-27T11:59:07.043Z,78.70
2019-04-27T12:01:35.808Z,78.60
2019-04-27T12:04:03.788Z,78.60
2019-04-27T12:06:31.509Z,79.30
2019-04-27T12:08:59.331Z,79.10
2019-04-27T12:11:27.010Z,78.10
2019-04-27T12:13:56.163Z,78.00
2019-04-27T12:16:23.907Z,78.90
2019-04-27T12:18:52.080Z,79.30
2019-04-27T12:21:21.079Z,80.30
2019-04-27T12:23:48.886Z,80.20
2019-04-27T12:26:31.253Z,80.40
2019-04-27T12:29:00.553Z,81.10
2019-04-27T12:31:31.621Z,81.60
2019-04-27T12:33:59.145Z,80.90
2019-04-27T12:36:27.243Z,81.00
2019-04-27T12:38:56.554Z,80.20
2019-04-27T12:41:24.277Z,78.50
2019-04-27T12:43:51.902Z,78.20
2019-04-27T12:46:20.293Z,79.60
2019-04-27T12:48:49.035Z,80.40
2019-04-27T12:51:16.596Z,81.20
2019-04-27T12:53:55.990Z,82.30
2019-04-27T12:56:32.978Z,82.30
2019-04-27T12:59:22.682Z,83.50
2019-04-27T13:01:50.883Z,84.80
2019-04-27T13:04:18.556Z,85.20
2019-04-27T13:06:47.018Z,85.70
2019-04-27T13:09:15.436Z,86.80
2019-04-27T13:11:45.914Z,87.50
2019-04-27T13:14:14.092Z,88.10
2019-04-27T13:16:41.652Z,88.80
2019-04-27T13:19:10.120Z,89.30
2019-04-27T13:21:37.515Z,90.10
2019-04-27T13:24:06.991Z,90.10
2019-04-27T13:26:36.172Z,90.40
2019-04-27T13:29:04.255Z,90.50
2019-04-27T13:31:31.783Z,90.20
2019-04-27T13:34:02.506Z,90.40
2019-04-27T13:36:29.316Z,90.60
2019-04-27T13:38:57.039Z,90.60
2019-04-27T13:41:30.297Z,90.60
2019-04-27T13:43:57.182Z,90.50
2019-04-27T13:46:43.655Z,90.90
2019-04-27T13:49:37.424Z,91.10
2019-04-27T13:52:09.149Z,91.40
2019-04-27T13:54:36.741Z,91.80
2019-04-27T13:57:04.467Z,92.00
2019-04-27T13:59:32.177Z,92.50
2019-04-27T14:01:59.756Z,92.60
2019-04-27T14:04:27.389Z,93.30
2019-04-27T14:06:55.663Z,93.00
2019-04-27T14:09:23.396Z,92.90
2019-04-27T14:11:55.429Z,92.80
2019-04-27T14:14:23.053Z,92.70
2019-04-27T14:16:50.473Z,92.80
2019-04-27T14:19:19.339Z,92.90
2019-04-27T14:21:48.729Z,92.60
2019-04-27T14:24:27.446Z,92.30
2019-04-27T14:26:48.574Z,92.00
2019-04-27T14:29:16.242Z,92.00
2019-04-27T14:31:43.840Z,92.20
2019-04-27T14:34:11.832Z,92.50
2019-04-27T14:36:42.601Z,92.70
2019-04-27T14:39:11.925Z,92.90
2019-04-27T14:41:41.981Z,93.10
2019-04-27T14:44:10.677Z,93.40
2019-04-27T14:46:39.222Z,93.70
2019-04-27T14:49:07.651Z,94.00
2019-04-27T14:51:36.067Z,94.20
2019-04-27T14:54:04.479Z,94.50
2019-04-27T14:56:32.214Z,94.60
2019-04-27T14:58:59.693Z,94.90
2019-04-27T15:01:29.001Z,94.90
2019-04-27T15:03:56.750Z,95.10
2019-04-27T15:06:25.510Z,95.10
2019-04-27T15:08:53.179Z,95.20
2019-04-27T15:11:20.763Z,95.30
2019-04-27T15:13:50.532Z,95.30
2019-04-27T15:16:18.028Z,95.70
2019-04-27T15:18:51.198Z,95.30
2019-04-27T15:21:20.230Z,95.30
2019-04-27T15:23:48.395Z,95.40
2019-04-27T15:26:20.176Z,95.20
2019-04-27T15:28:49.424Z,95.10
2019-04-27T15:31:30.283Z,95.10
2019-04-27T15:34:16.208Z,95.00
2019-04-27T15:37:07.965Z,95.00
2019-04-27T15:39:57.754Z,95.10
2019-04-27T15:42:30.679Z,95.20
2019-04-27T15:44:58.549Z,95.40
2019-04-27T15:47:28.428Z,95.40
2019-04-27T15:49:55.914Z,95.50
2019-04-27T15:52:25.511Z,95.40
2019-04-27T15:54:53.012Z,95.40
2019-04-27T15:57:20.910Z,95.60
2019-04-27T15:59:48.470Z,95.60
2019-04-27T16:02:16.056Z,96.00
2019-04-27T16:04:44.474Z,95.90
2019-04-27T16:07:12.838Z,96.00
2019-04-27T16:09:40.375Z,96.00
2019-04-27T16:12:12.531Z,96.10
2019-04-27T16:14:40.880Z,96.10
2019-04-27T16:17:08.103Z,96.10
2019-04-27T16:19:42.385Z,96.10
2019-04-27T16:22:07.998Z,96.10
2019-04-27T16:24:36.298Z,96.00
2019-04-27T16:27:04.174Z,95.90
2019-04-27T16:29:36.084Z,95.90
2019-04-27T16:32:07.820Z,95.90
2019-04-27T16:34:41.261Z,96.00
2019-04-27T16:37:14.068Z,96.10
2019-04-27T16:39:45.502Z,96.30
2019-04-27T16:42:14.188Z,96.40
2019-04-27T16:44:44.411Z,96.80
2019-04-27T16:47:21.954Z,96.60
2019-04-27T16:49:48.394Z,96.60
2019-04-27T16:52:17.549Z,96.60
2019-04-27T16:54:53.538Z,96.60
2019-04-27T16:57:15.635Z,96.70
2019-04-27T16:59:50.503Z,96.70
2019-04-27T17:02:17.372Z,96.60
2019-04-27T17:04:51.978Z,96.70
2019-04-27T17:07:14.706Z,96.70
2019-04-27T17:09:46.287Z,96.70
2019-04-27T17:12:12.635Z,96.70
2019-04-27T17:15:13.683Z,96.80
2019-04-27T17:17:51.254Z,96.80
2019-04-27T17:20:21.339Z,96.80
2019-04-27T17:22:53.241Z,96.90
2019-04-27T17:25:23.313Z,96.90
2019-04-27T17:27:58.790Z,96.90
2019-04-27T17:30:30.973Z,96.90
2019-04-27T17:33:11.921Z,97.00
2019-04-27T17:35:45.391Z,96.90
2019-04-27T17:39:25.777Z,97.00
2019-04-27T17:41:53.438Z,97.00
2019-04-27T17:44:24.420Z,97.10
2019-04-27T17:46:52.138Z,97.10
2019-04-27T17:49:19.905Z,97.20
2019-04-27T17:51:48.426Z,96.80
2019-04-27T17:54:18.075Z,97.20
2019-04-27T17:56:50.990Z,97.30
2019-04-27T17:59:20.746Z,97.40
2019-04-27T18:01:49.608Z,97.60
2019-04-27T18:04:18.617Z,97.50
2019-04-27T18:06:48.354Z,97.50
2019-04-27T18:09:18.749Z,97.60
2019-04-27T18:11:48.617Z,97.70
2019-04-27T18:14:16.382Z,97.70
2019-04-27T18:16:44.725Z,97.60
2019-04-27T18:19:21.176Z,97.80
2019-04-27T18:22:05.318Z,97.60
2019-04-27T18:25:25.786Z,97.70
2019-04-27T18:28:00.547Z,97.70
2019-04-27T18:30:46.457Z,97.80
2019-04-27T18:33:14.837Z,97.80
2019-04-27T18:35:42.493Z,97.80
2019-04-27T18:38:09.998Z,97.80
2019-04-27T18:40:38.222Z,97.80
2019-04-27T18:43:12.311Z,97.80
2019-04-27T18:45:44.414Z,97.70
2019-04-27T18:48:13.903Z,97.60
2019-04-27T18:50:52.208Z,97.50
2019-04-27T18:53:24.380Z,97.40
2019-04-27T18:55:57.623Z,97.30
2019-04-27T18:58:21.681Z,97.20
2019-04-27T19:00:50.142Z,97.30
2019-04-27T19:03:18.828Z,97.20
2019-04-27T19:05:48.129Z,97.20
2019-04-27T19:08:19.970Z,97.10
2019-04-27T19:10:47.645Z,97.20
2019-04-27T19:13:15.107Z,97.10
2019-04-27T19:15:43.406Z,97.00
2019-04-27T19:18:14.007Z,97.00
2019-04-27T19:20:42.506Z,97.00
2019-04-27T19:23:14.260Z,96.90
2019-04-27T19:25:58.539Z,96.90
2019-04-27T19:28:39.186Z,96.90
2019-04-27T19:31:13.695Z,96.90
2019-04-27T19:33:41.293Z,96.90
2019-04-27T19:36:08.861Z,96.90
2019-04-27T19:38:36.609Z,97.00
2019-04-27T19:41:05.328Z,97.10
2019-04-27T19:43:33.736Z,97.10
2019-04-27T19:46:03.259Z,97.10
2019-04-27T19:48:32.002Z,97.20
2019-04-27T19:51:00.167Z,97.20
2019-04-27T19:53:27.951Z,97.20
2019-04-27T19:56:02.493Z,97.20
2019-04-27T19:58:34.456Z,97.20
2019-04-27T20:01:11.759Z,97.20
2019-04-27T20:03:53.847Z,97.10
2019-04-27T20:06:22.342Z,97.10
2019-04-27T20:08:52.285Z,97.00
2019-04-27T20:11:19.837Z,97.10
2019-04-27T20:13:47.288Z,97.10
2019-04-27T20:16:14.627Z,97.10
2019-04-27T20:18:43.357Z,97.20
2019-04-27T20:21:12.312Z,97.20
2019-04-27T20:23:40.839Z,97.20
2019-04-27T20:26:08.819Z,97.40
2019-04-27T20:28:38.540Z,97.40
2019-04-27T20:31:09.707Z,97.40
2019-04-27T20:33:38.005Z,97.40
2019-04-27T20:36:05.548Z,97.40
2019-04-27T20:38:34.059Z,97.60
2019-04-27T20:41:01.462Z,97.60
2019-04-27T20:43:28.937Z,97.70
2019-04-27T20:45:56.602Z,97.80
2019-04-27T20:48:24.182Z,97.90
2019-04-27T20:50:51.521Z,97.90
2019-04-27T20:53:24.119Z,98.20
2019-04-27T20:55:51.800Z,98.30
2019-04-27T20:58:21.113Z,98.50
2019-04-27T21:00:48.977Z,98.60
2019-04-27T21:03:41.091Z,98.90
2019-04-27T21:06:17.230Z,98.80
2019-04-27T21:08:45.000Z,98.90
2019-04-27T21:11:12.385Z,99.20
2019-04-27T21:13:40.030Z,99.00
2019-04-27T21:16:07.527Z,99.00
2019-04-27T21:18:37.248Z,99.40
2019-04-27T21:21:04.677Z,99.50
2019-04-27T21:23:32.066Z,99.20
2019-04-27T21:26:02.077Z,99.30
2019-04-27T21:28:30.998Z,99.30
2019-04-27T21:30:58.573Z,99.40
2019-04-27T21:33:26.054Z,99.50
2019-04-27T21:35:53.643Z,99.50
2019-04-27T21:38:21.372Z,99.60
2019-04-27T21:40:49.371Z,99.60
2019-04-27T21:43:21.637Z,99.80
2019-04-27T21:45:51.338Z,99.90
2019-04-27T21:48:18.797Z,99.90
2019-04-27T21:50:46.235Z,99.90
2019-04-27T21:53:32.193Z,99.90
2019-04-27T21:56:04.602Z,99.90
2019-04-27T21:58:33.342Z,99.90
2019-04-27T22:01:23.777Z,99.90
2019-04-27T22:03:52.749Z,99.90
2019-04-27T22:06:20.359Z,99.90
2019-04-27T22:08:47.854Z,99.90
2019-04-27T22:11:15.513Z,99.90
2019-04-27T22:13:43.420Z,99.90
2019-04-27T22:16:12.917Z,99.90
2019-04-27T22:18:41.707Z,99.90
2019-04-27T22:21:11.345Z,99.90
2019-04-27T22:23:53.081Z,99.90
2019-04-27T22:26:21.360Z,99.90
2019-04-27T22:28:52.085Z,99.90
2019-04-27T22:31:21.243Z,99.90
2019-04-27T22:33:52.056Z,99.90
2019-04-27T22:36:18.661Z,99.90
2019-04-27T22:38:46.017Z,99.90
2019-04-27T22:41:23.224Z,99.90
2019-04-27T22:44:02.799Z,99.90
2019-04-27T22:46:30.970Z,99.90
2019-04-27T22:48:58.463Z,99.90
2019-04-27T22:51:26.368Z,99.90
2019-04-27T22:53:53.709Z,99.90
2019-04-27T22:56:22.180Z,99.90
2019-04-27T22:59:08.064Z,99.90
2019-04-27T23:01:51.942Z,99.90
2019-04-27T23:04:22.875Z,99.90
2019-04-27T23:06:50.530Z,99.90
2019-04-27T23:09:18.090Z,99.90
2019-04-27T23:11:45.578Z,99.90
2019-04-27T23:14:13.043Z,99.90
2019-04-27T23:16:42.674Z,99.90
2019-04-27T23:19:10.874Z,99.90
2019-04-27T23:21:38.558Z,99.90
2019-04-27T23:24:06.104Z,99.90
2019-04-27T23:26:33.697Z,99.90
2019-04-27T23:29:12.942Z,99.90
2019-04-27T23:31:37.257Z,99.90
2019-04-27T23:34:04.874Z,99.90
2019-04-27T23:36:32.268Z,99.90
2019-04-27T23:39:01.780Z,99.90
2019-04-27T23:41:31.271Z,99.90
2019-04-27T23:43:58.687Z,99.90
2019-04-27T23:46:26.184Z,99.90
2019-04-27T23:48:53.932Z,99.90
2019-04-27T23:51:29.940Z,99.90
2019-04-27T23:53:59.141Z,99.90
2019-04-27T23:56:26.597Z,99.90
2019-04-27T23:58:54.222Z,99.90
